La Fayette, Georgia
Current Conditions -  °F | °C
As of 2:53 PM on Sunday 25 Jan 2015 (Local Time) from KCHA Reporting Station
Scattered Clouds Scattered Clouds  
Wind Chill: 57°   Ceiling: Unl
Heat Index: 57°   Visibility: 10mi
Dew Point: 32°   Wind: 15mph
Humidity: 39%   Direction: 160°SSE
Pressure: 29.71"   Gusts: 25mph
Location:  34.71°N, 85.28°W
Report Text: KCHA 251953Z 16013G22KT 10SM SCT150 SCT250 14/00 A2971 RMK AO2 SLP061 T01390000
Loading
Personal Weather Stations






























Interactive Weather Map New forecast layout! Learn more

10-Day Weather Forecast

Advertisements
Track Severe Weather on mobile